sensor_id;sensor_type;location;lat;lon;timestamp;pressure;altitude;pressure_sealevel;temperature;humidity
62739;BME280;48788;48.074;13.000;2023-12-29T00:01:15;95733.13;;;6.10;67.05
62739;BME280;48788;48.074;13.000;2023-12-29T00:03:46;95738.94;;;6.05;68.36
62739;BME280;48788;48.074;13.000;2023-12-29T00:06:17;95736.25;;;6.13;67.21
62739;BME280;48788;48.074;13.000;2023-12-29T00:08:49;95741.84;;;6.10;66.43
62739;BME280;48788;48.074;13.000;2023-12-29T00:11:20;95729.34;;;6.27;64.77
62739;BME280;48788;48.074;13.000;2023-12-29T00:13:57;95727.09;;;6.24;64.51
62739;BME280;48788;48.074;13.000;2023-12-29T00:16:28;95736.25;;;6.13;65.63
62739;BME280;48788;48.074;13.000;2023-12-29T00:19:00;95728.94;;;6.01;67.81
62739;BME280;48788;48.074;13.000;2023-12-29T00:21:31;95728.13;;;6.00;69.06
62739;BME280;48788;48.074;13.000;2023-12-29T00:24:04;95737.38;;;5.96;68.69
62739;BME280;48788;48.074;13.000;2023-12-29T00:26:35;95726.06;;;5.95;67.76
62739;BME280;48788;48.074;13.000;2023-12-29T00:29:13;95718.34;;;5.94;66.36
62739;BME280;48788;48.074;13.000;2023-12-29T00:31:45;95730.25;;;6.05;65.15
62739;BME280;48788;48.074;13.000;2023-12-29T00:34:16;95724.78;;;6.06;65.35
62739;BME280;48788;48.074;13.000;2023-12-29T00:36:48;95715.53;;;6.10;63.84
62739;BME280;48788;48.074;13.000;2023-12-29T00:39:20;95716.19;;;6.12;65.03
62739;BME280;48788;48.074;13.000;2023-12-29T00:41:54;95708.16;;;6.06;65.22
62739;BME280;48788;48.074;13.000;2023-12-29T00:44:32;95704.28;;;6.16;65.77
62739;BME280;48788;48.074;13.000;2023-12-29T00:47:03;95703.72;;;6.06;66.71
62739;BME280;48788;48.074;13.000;2023-12-29T00:49:38;95697.31;;;5.94;66.61
62739;BME280;48788;48.074;13.000;2023-12-29T00:52:10;95701.47;;;6.03;66.49
62739;BME280;48788;48.074;13.000;2023-12-29T00:54:41;95699.50;;;6.05;65.38
62739;BME280;48788;48.074;13.000;2023-12-29T00:57:13;95703.22;;;6.11;65.03
62739;BME280;48788;48.074;13.000;2023-12-29T00:59:50;95706.84;;;6.10;65.51
62739;BME280;48788;48.074;13.000;2023-12-29T01:02:21;95696.03;;;6.05;67.20
62739;BME280;48788;48.074;13.000;2023-12-29T01:04:52;95695.06;;;5.83;67.95
62739;BME280;48788;48.074;13.000;2023-12-29T01:07:24;95698.22;;;5.78;67.78
62739;BME280;48788;48.074;13.000;2023-12-29T01:09:55;95695.41;;;5.65;70.06
62739;BME280;48788;48.074;13.000;2023-12-29T01:12:27;95705.44;;;5.39;72.76
62739;BME280;48788;48.074;13.000;2023-12-29T01:15:04;95716.16;;;5.37;74.78
62739;BME280;48788;48.074;13.000;2023-12-29T01:17:36;95712.06;;;5.35;75.65
62739;BME280;48788;48.074;13.000;2023-12-29T01:20:08;95711.66;;;5.46;76.22
62739;BME280;48788;48.074;13.000;2023-12-29T01:22:40;95708.38;;;5.67;77.40
62739;BME280;48788;48.074;13.000;2023-12-29T01:25:11;95703.91;;;5.67;76.60
62739;BME280;48788;48.074;13.000;2023-12-29T01:27:42;95701.59;;;5.49;78.06
62739;BME280;48788;48.074;13.000;2023-12-29T01:30:19;95694.53;;;5.50;80.06
62739;BME280;48788;48.074;13.000;2023-12-29T01:32:50;95702.88;;;5.31;83.03
62739;BME280;48788;48.074;13.000;2023-12-29T01:35:22;95698.56;;;5.38;83.36
62739;BME280;48788;48.074;13.000;2023-12-29T01:37:53;95702.38;;;5.35;84.26
62739;BME280;48788;48.074;13.000;2023-12-29T01:40:26;95695.94;;;5.38;84.88
62739;BME280;48788;48.074;13.000;2023-12-29T01:42:58;95703.03;;;5.29;85.99
62739;BME280;48788;48.074;13.000;2023-12-29T01:45:34;95703.13;;;5.44;84.55
62739;BME280;48788;48.074;13.000;2023-12-29T01:48:08;95701.72;;;5.56;83.00
62739;BME280;48788;48.074;13.000;2023-12-29T01:50:40;95696.13;;;5.74;81.54
62739;BME280;48788;48.074;13.000;2023-12-29T01:53:11;95698.69;;;5.82;81.44
62739;BME280;48788;48.074;13.000;2023-12-29T01:55:43;95696.47;;;5.93;79.83
62739;BME280;48788;48.074;13.000;2023-12-29T01:58:15;95693.13;;;6.00;79.23
62739;BME280;48788;48.074;13.000;2023-12-29T02:00:52;95695.84;;;6.06;77.72
62739;BME280;48788;48.074;13.000;2023-12-29T02:03:23;95690.16;;;6.03;77.76
62739;BME280;48788;48.074;13.000;2023-12-29T02:05:55;95690.66;;;5.98;77.90
62739;BME280;48788;48.074;13.000;2023-12-29T02:08:26;95683.91;;;5.81;79.44
62739;BME280;48788;48.074;13.000;2023-12-29T02:10:58;95687.03;;;5.62;80.61
62739;BME280;48788;48.074;13.000;2023-12-29T02:13:30;95677.75;;;5.51;80.22
62739;BME280;48788;48.074;13.000;2023-12-29T02:16:14;95676.75;;;5.37;81.06
62739;BME280;48788;48.074;13.000;2023-12-29T02:18:58;95675.28;;;5.35;81.60
62739;BME280;48788;48.074;13.000;2023-12-29T02:21:32;95674.78;;;5.31;80.43
62739;BME280;48788;48.074;13.000;2023-12-29T02:24:04;95674.09;;;5.37;79.89
62739;BME280;48788;48.074;13.000;2023-12-29T02:26:43;95661.81;;;5.30;80.76
62739;BME280;48788;48.074;13.000;2023-12-29T02:29:20;95666.41;;;5.13;81.33
62739;BME280;48788;48.074;13.000;2023-12-29T02:31:53;95667.28;;;5.05;82.00
62739;BME280;48788;48.074;13.000;2023-12-29T02:34:28;95668.44;;;5.03;81.17
62739;BME280;48788;48.074;13.000;2023-12-29T02:37:01;95668.81;;;5.00;81.01
62739;BME280;48788;48.074;13.000;2023-12-29T02:39:33;95669.97;;;4.97;80.08
62739;BME280;48788;48.074;13.000;2023-12-29T02:42:11;95667.50;;;4.96;81.05
62739;BME280;48788;48.074;13.000;2023-12-29T02:44:42;95658.53;;;4.90;81.50
62739;BME280;48788;48.074;13.000;2023-12-29T02:47:13;95659.44;;;4.97;80.28
62739;BME280;48788;48.074;13.000;2023-12-29T02:49:47;95655.38;;;4.95;82.89
62739;BME280;48788;48.074;13.000;2023-12-29T02:52:18;95657.16;;;4.94;82.76
62739;BME280;48788;48.074;13.000;2023-12-29T02:54:49;95637.69;;;4.89;83.75
62739;BME280;48788;48.074;13.000;2023-12-29T02:57:26;95642.78;;;4.82;85.81
62739;BME280;48788;48.074;13.000;2023-12-29T02:59:58;95628.50;;;4.84;87.13
62739;BME280;48788;48.074;13.000;2023-12-29T03:02:29;95634.41;;;4.87;88.13
62739;BME280;48788;48.074;13.000;2023-12-29T03:05:01;95630.75;;;4.96;87.26
62739;BME280;48788;48.074;13.000;2023-12-29T03:07:32;95620.06;;;4.97;88.54
62739;BME280;48788;48.074;13.000;2023-12-29T03:10:06;95624.28;;;5.06;88.08
62739;BME280;48788;48.074;13.000;2023-12-29T03:12:43;95622.63;;;5.05;89.41
62739;BME280;48788;48.074;13.000;2023-12-29T03:15:14;95624.41;;;4.90;91.02
62739;BME280;48788;48.074;13.000;2023-12-29T03:17:46;95629.88;;;5.03;89.86
62739;BME280;48788;48.074;13.000;2023-12-29T03:20:17;95629.34;;;5.08;89.79
62739;BME280;48788;48.074;13.000;2023-12-29T03:22:48;95628.75;;;5.20;87.14
62739;BME280;48788;48.074;13.000;2023-12-29T03:25:21;95630.84;;;5.25;86.56
62739;BME280;48788;48.074;13.000;2023-12-29T03:27:58;95630.50;;;5.28;85.25
62739;BME280;48788;48.074;13.000;2023-12-29T03:30:29;95631.28;;;5.29;84.13
62739;BME280;48788;48.074;13.000;2023-12-29T03:33:00;95621.97;;;5.26;83.02
62739;BME280;48788;48.074;13.000;2023-12-29T03:35:32;95627.88;;;5.28;81.48
62739;BME280;48788;48.074;13.000;2023-12-29T03:38:03;95624.44;;;5.28;79.35
62739;BME280;48788;48.074;13.000;2023-12-29T03:40:35;95626.03;;;5.29;79.89
62739;BME280;48788;48.074;13.000;2023-12-29T03:43:12;95620.00;;;5.28;79.30
62739;BME280;48788;48.074;13.000;2023-12-29T03:45:43;95612.91;;;5.29;78.02
62739;BME280;48788;48.074;13.000;2023-12-29T03:48:15;95619.19;;;5.28;78.51
62739;BME280;48788;48.074;13.000;2023-12-29T03:50:46;95612.72;;;5.30;76.36
62739;BME280;48788;48.074;13.000;2023-12-29T03:53:18;95603.59;;;5.26;76.40
62739;BME280;48788;48.074;13.000;2023-12-29T03:55:50;95595.63;;;5.34;74.45
62739;BME280;48788;48.074;13.000;2023-12-29T03:58:26;95590.03;;;5.37;74.59
62739;BME280;48788;48.074;13.000;2023-12-29T04:00:58;95588.09;;;5.31;75.61
62739;BME280;48788;48.074;13.000;2023-12-29T04:03:29;95586.63;;;5.29;75.62
62739;BME280;48788;48.074;13.000;2023-12-29T04:06:00;95590.66;;;5.39;72.58
62739;BME280;48788;48.074;13.000;2023-12-29T04:08:32;95582.31;;;5.36;72.35
62739;BME280;48788;48.074;13.000;2023-12-29T04:11:04;95582.75;;;5.25;73.63
62739;BME280;48788;48.074;13.000;2023-12-29T04:13:42;95580.03;;;5.18;75.02
62739;BME280;48788;48.074;13.000;2023-12-29T04:16:13;95587.44;;;5.29;72.29
62739;BME280;48788;48.074;13.000;2023-12-29T04:18:44;95592.53;;;5.31;72.92
62739;BME280;48788;48.074;13.000;2023-12-29T04:21:16;95585.13;;;5.49;70.32
62739;BME280;48788;48.074;13.000;2023-12-29T04:23:47;95586.59;;;5.51;69.70
62739;BME280;48788;48.074;13.000;2023-12-29T04:26:19;95571.72;;;5.44;71.08
62739;BME280;48788;48.074;13.000;2023-12-29T04:28:55;95586.84;;;5.27;72.36
62739;BME280;48788;48.074;13.000;2023-12-29T04:31:27;95579.03;;;5.19;73.35
62739;BME280;48788;48.074;13.000;2023-12-29T04:33:58;95577.41;;;5.33;72.05
62739;BME280;48788;48.074;13.000;2023-12-29T04:36:30;95571.25;;;5.40;72.27
62739;BME280;48788;48.074;13.000;2023-12-29T04:39:01;95583.72;;;5.46;72.26
62739;BME280;48788;48.074;13.000;2023-12-29T04:41:34;95582.53;;;5.64;71.04
62739;BME280;48788;48.074;13.000;2023-12-29T04:44:11;95587.50;;;5.58;71.65
62739;BME280;48788;48.074;13.000;2023-12-29T04:46:42;95593.22;;;5.62;71.32
62739;BME280;48788;48.074;13.000;2023-12-29T04:49:14;95587.16;;;5.62;72.28
62739;BME280;48788;48.074;13.000;2023-12-29T04:51:45;95596.69;;;5.63;71.80
62739;BME280;48788;48.074;13.000;2023-12-29T04:54:17;95592.41;;;5.62;71.26
62739;BME280;48788;48.074;13.000;2023-12-29T04:56:49;95592.50;;;5.68;70.98
62739;BME280;48788;48.074;13.000;2023-12-29T04:59:26;95598.31;;;5.78;70.62
62739;BME280;48788;48.074;13.000;2023-12-29T05:01:57;95587.97;;;5.77;71.00
62739;BME280;48788;48.074;13.000;2023-12-29T05:04:28;95590.41;;;5.78;71.81
62739;BME280;48788;48.074;13.000;2023-12-29T05:07:00;95584.56;;;5.76;71.96
62739;BME280;48788;48.074;13.000;2023-12-29T05:09:31;95583.75;;;5.90;71.12
62739;BME280;48788;48.074;13.000;2023-12-29T05:12:03;95582.19;;;5.81;71.43
62739;BME280;48788;48.074;13.000;2023-12-29T05:14:40;95585.75;;;6.03;69.28
62739;BME280;48788;48.074;13.000;2023-12-29T05:17:11;95582.84;;;6.13;66.42
62739;BME280;48788;48.074;13.000;2023-12-29T05:19:43;95573.84;;;6.22;66.17
62739;BME280;48788;48.074;13.000;2023-12-29T05:22:14;95570.41;;;6.21;66.04
62739;BME280;48788;48.074;13.000;2023-12-29T05:24:46;95581.56;;;6.23;65.58
62739;BME280;48788;48.074;13.000;2023-12-29T05:27:17;95572.56;;;6.18;66.89
62739;BME280;48788;48.074;13.000;2023-12-29T05:29:54;95578.66;;;6.18;65.12
62739;BME280;48788;48.074;13.000;2023-12-29T05:32:25;95584.09;;;6.17;65.96
62739;BME280;48788;48.074;13.000;2023-12-29T05:34:56;95581.09;;;6.20;65.61
62739;BME280;48788;48.074;13.000;2023-12-29T05:37:28;95596.44;;;6.16;65.21
62739;BME280;48788;48.074;13.000;2023-12-29T05:39:59;95596.69;;;6.07;64.93
62739;BME280;48788;48.074;13.000;2023-12-29T05:42:31;95600.53;;;6.04;65.81
62739;BME280;48788;48.074;13.000;2023-12-29T05:45:09;95604.25;;;5.95;66.91
62739;BME280;48788;48.074;13.000;2023-12-29T05:47:40;95609.78;;;6.00;66.39
62739;BME280;48788;48.074;13.000;2023-12-29T05:50:12;95612.97;;;5.95;91.04
62739;BME280;48788;48.074;13.000;2023-12-29T05:52:43;95600.84;;;5.57;94.86
62739;BME280;48788;48.074;13.000;2023-12-29T05:55:17;95593.97;;;5.56;100.00
62739;BME280;48788;48.074;13.000;2023-12-29T05:57:48;95593.75;;;5.43;100.00
62739;BME280;48788;48.074;13.000;2023-12-29T06:00:26;95606.47;;;5.16;100.00
62739;BME280;48788;48.074;13.000;2023-12-29T06:02:58;95605.72;;;5.08;100.00
62739;BME280;48788;48.074;13.000;2023-12-29T06:05:29;95607.38;;;5.01;100.00
62739;BME280;48788;48.074;13.000;2023-12-29T06:08:01;95606.34;;;4.87;100.00
62739;BME280;48788;48.074;13.000;2023-12-29T06:10:32;95617.13;;;4.92;100.00
62739;BME280;48788;48.074;13.000;2023-12-29T06:13:04;95606.56;;;5.00;100.00
62739;BME280;48788;48.074;13.000;2023-12-29T06:15:41;95612.94;;;5.06;100.00
62739;BME280;48788;48.074;13.000;2023-12-29T06:18:12;95604.66;;;5.17;100.00
62739;BME280;48788;48.074;13.000;2023-12-29T06:20:44;95611.72;;;5.16;99.97
62739;BME280;48788;48.074;13.000;2023-12-29T06:23:15;95606.28;;;5.18;100.00
62739;BME280;48788;48.074;13.000;2023-12-29T06:25:47;95607.56;;;5.22;92.90
62739;BME280;48788;48.074;13.000;2023-12-29T06:28:19;95610.56;;;5.34;96.41
62739;BME280;48788;48.074;13.000;2023-12-29T06:30:56;95606.91;;;5.20;100.00
62739;BME280;48788;48.074;13.000;2023-12-29T06:33:28;95596.22;;;5.21;100.00
62739;BME280;48788;48.074;13.000;2023-12-29T06:35:59;95606.56;;;5.23;97.68
62739;BME280;48788;48.074;13.000;2023-12-29T06:38:30;95613.94;;;5.28;96.09
62739;BME280;48788;48.074;13.000;2023-12-29T06:41:03;95610.66;;;5.26;94.63
62739;BME280;48788;48.074;13.000;2023-12-29T06:43:35;95613.53;;;5.16;96.49
62739;BME280;48788;48.074;13.000;2023-12-29T06:46:12;95617.91;;;5.38;87.72
62739;BME280;48788;48.074;13.000;2023-12-29T06:48:43;95624.38;;;5.36;88.30
62739;BME280;48788;48.074;13.000;2023-12-29T06:51:18;95615.69;;;5.50;82.34
62739;BME280;48788;48.074;13.000;2023-12-29T06:53:50;95612.78;;;5.45;82.07
62739;BME280;48788;48.074;13.000;2023-12-29T06:56:21;95615.59;;;5.43;83.88
62739;BME280;48788;48.074;13.000;2023-12-29T06:58:53;95611.41;;;5.49;82.80
62739;BME280;48788;48.074;13.000;2023-12-29T07:01:30;95614.50;;;5.52;81.11
62739;BME280;48788;48.074;13.000;2023-12-29T07:04:01;95621.88;;;5.57;83.02
62739;BME280;48788;48.074;13.000;2023-12-29T07:06:35;95622.50;;;5.59;87.23
62739;BME280;48788;48.074;13.000;2023-12-29T07:09:07;95625.94;;;5.59;89.10
62739;BME280;48788;48.074;13.000;2023-12-29T07:11:39;95619.94;;;5.36;97.73
62739;BME280;48788;48.074;13.000;2023-12-29T07:14:10;95633.66;;;5.23;100.00
62739;BME280;48788;48.074;13.000;2023-12-29T07:16:48;95617.53;;;5.04;100.00
62739;BME280;48788;48.074;13.000;2023-12-29T07:19:19;95623.81;;;4.72;100.00
62739;BME280;48788;48.074;13.000;2023-12-29T07:21:52;95616.19;;;4.62;100.00
62739;BME280;48788;48.074;13.000;2023-12-29T07:24:24;95611.81;;;4.55;100.00
62739;BME280;48788;48.074;13.000;2023-12-29T07:26:55;95612.63;;;4.55;100.00
62739;BME280;48788;48.074;13.000;2023-12-29T07:29:27;95613.00;;;4.44;100.00
62739;BME280;48788;48.074;13.000;2023-12-29T07:32:05;95606.13;;;4.43;100.00
62739;BME280;48788;48.074;13.000;2023-12-29T07:34:36;95605.41;;;4.57;100.00
62739;BME280;48788;48.074;13.000;2023-12-29T07:37:09;95616.44;;;4.75;100.00
62739;BME280;48788;48.074;13.000;2023-12-29T07:39:41;95626.13;;;4.75;100.00
62739;BME280;48788;48.074;13.000;2023-12-29T07:42:13;95631.13;;;4.84;100.00
62739;BME280;48788;48.074;13.000;2023-12-29T07:44:44;95621.13;;;4.88;100.00
62739;BME280;48788;48.074;13.000;2023-12-29T07:47:22;95620.06;;;4.97;100.00
62739;BME280;48788;48.074;13.000;2023-12-29T07:49:54;95617.03;;;5.08;100.00
62739;BME280;48788;48.074;13.000;2023-12-29T07:52:25;95619.75;;;5.15;100.00
62739;BME280;48788;48.074;13.000;2023-12-29T07:54:56;95635.75;;;5.28;100.00
62739;BME280;48788;48.074;13.000;2023-12-29T07:57:28;95629.44;;;5.14;100.00
62739;BME280;48788;48.074;13.000;2023-12-29T08:00:00;95640.88;;;5.21;100.00
62739;BME280;48788;48.074;13.000;2023-12-29T08:02:37;95645.69;;;5.18;100.00
62739;BME280;48788;48.074;13.000;2023-12-29T08:05:08;95639.31;;;5.12;100.00
62739;BME280;48788;48.074;13.000;2023-12-29T08:07:41;95638.09;;;5.23;100.00
62739;BME280;48788;48.074;13.000;2023-12-29T08:10:12;95639.94;;;5.37;100.00
62739;BME280;48788;48.074;13.000;2023-12-29T08:12:44;95636.31;;;5.38;100.00
62739;BME280;48788;48.074;13.000;2023-12-29T08:15:15;95631.56;;;5.56;100.00
62739;BME280;48788;48.074;13.000;2023-12-29T08:17:52;95635.38;;;5.69;100.00
62739;BME280;48788;48.074;13.000;2023-12-29T08:20:24;95642.81;;;5.80;100.00
62739;BME280;48788;48.074;13.000;2023-12-29T08:22:55;95646.38;;;5.87;100.00
62739;BME280;48788;48.074;13.000;2023-12-29T08:25:28;95646.69;;;5.92;100.00
62739;BME280;48788;48.074;13.000;2023-12-29T08:28:02;95644.97;;;5.99;100.00
62739;BME280;48788;48.074;13.000;2023-12-29T08:30:34;95649.31;;;6.07;100.00
62739;BME280;48788;48.074;13.000;2023-12-29T08:33:12;95660.19;;;6.18;100.00
62739;BME280;48788;48.074;13.000;2023-12-29T08:35:44;95671.91;;;6.30;100.00
62739;BME280;48788;48.074;13.000;2023-12-29T08:38:15;95657.03;;;6.38;100.00
62739;BME280;48788;48.074;13.000;2023-12-29T08:40:47;95655.94;;;6.17;100.00
62739;BME280;48788;48.074;13.000;2023-12-29T08:43:18;95656.22;;;6.22;100.00
62739;BME280;48788;48.074;13.000;2023-12-29T08:45:50;95656.41;;;6.21;100.00
62739;BME280;48788;48.074;13.000;2023-12-29T08:48:26;95659.03;;;6.21;100.00
62739;BME280;48788;48.074;13.000;2023-12-29T08:50:59;95657.28;;;6.57;100.00
62739;BME280;48788;48.074;13.000;2023-12-29T08:53:32;95669.56;;;6.86;100.00
62739;BME280;48788;48.074;13.000;2023-12-29T08:56:04;95668.56;;;6.87;100.00
62739;BME280;48788;48.074;13.000;2023-12-29T08:58:35;95669.78;;;7.06;100.00
62739;BME280;48788;48.074;13.000;2023-12-29T09:01:07;95670.34;;;7.23;99.79
62739;BME280;48788;48.074;13.000;2023-12-29T09:03:43;95664.59;;;7.34;99.99
62739;BME280;48788;48.074;13.000;2023-12-29T09:06:15;95677.09;;;7.47;94.53
62739;BME280;48788;48.074;13.000;2023-12-29T09:08:46;95676.53;;;7.79;91.59
62739;BME280;48788;48.074;13.000;2023-12-29T09:11:18;95678.63;;;8.18;91.07
62739;BME280;48788;48.074;13.000;2023-12-29T09:13:49;95678.19;;;8.36;73.37
62739;BME280;48788;48.074;13.000;2023-12-29T09:16:20;95669.84;;;8.39;74.08
62739;BME280;48788;48.074;13.000;2023-12-29T09:18:57;95665.31;;;8.67;77.25
62739;BME280;48788;48.074;13.000;2023-12-29T09:21:29;95656.63;;;8.73;72.53
62739;BME280;48788;48.074;13.000;2023-12-29T09:24:00;95662.97;;;8.85;68.74
62739;BME280;48788;48.074;13.000;2023-12-29T09:26:31;95665.03;;;8.97;70.18
62739;BME280;48788;48.074;13.000;2023-12-29T09:29:03;95669.94;;;9.00;68.42
62739;BME280;48788;48.074;13.000;2023-12-29T09:31:34;95674.22;;;9.01;69.30
62739;BME280;48788;48.074;13.000;2023-12-29T09:34:11;95677.84;;;8.93;67.86
62739;BME280;48788;48.074;13.000;2023-12-29T09:36:43;95679.25;;;8.89;66.94
62739;BME280;48788;48.074;13.000;2023-12-29T09:39:14;95667.88;;;8.95;68.51
62739;BME280;48788;48.074;13.000;2023-12-29T09:41:46;95666.94;;;9.22;67.39
62739;BME280;48788;48.074;13.000;2023-12-29T09:44:22;95668.63;;;9.56;66.81
62739;BME280;48788;48.074;13.000;2023-12-29T09:46:54;95666.81;;;9.77;64.47
62739;BME280;48788;48.074;13.000;2023-12-29T09:49:36;95670.66;;;9.94;63.13
62739;BME280;48788;48.074;13.000;2023-12-29T09:52:10;95663.53;;;9.94;65.63
62739;BME280;48788;48.074;13.000;2023-12-29T09:54:44;95665.34;;;10.14;62.24
62739;BME280;48788;48.074;13.000;2023-12-29T09:57:16;95666.13;;;10.54;62.08
62739;BME280;48788;48.074;13.000;2023-12-29T09:59:51;95661.50;;;10.87;62.07
62739;BME280;48788;48.074;13.000;2023-12-29T10:02:22;95658.75;;;11.13;59.60
62739;BME280;48788;48.074;13.000;2023-12-29T10:05:01;95647.44;;;10.87;58.39
62739;BME280;48788;48.074;13.000;2023-12-29T10:07:36;95644.06;;;10.66;58.94
62739;BME280;48788;48.074;13.000;2023-12-29T10:10:14;95642.94;;;10.94;57.11
62739;BME280;48788;48.074;13.000;2023-12-29T10:12:49;95647.63;;;11.30;57.97
62739;BME280;48788;48.074;13.000;2023-12-29T10:15:27;95644.09;;;11.67;58.24
62739;BME280;48788;48.074;13.000;2023-12-29T10:18:08;95644.06;;;11.80;56.57
62739;BME280;48788;48.074;13.000;2023-12-29T10:20:55;95646.13;;;11.72;56.34
62739;BME280;48788;48.074;13.000;2023-12-29T10:23:41;95647.59;;;12.17;56.86
62739;BME280;48788;48.074;13.000;2023-12-29T10:26:14;95639.75;;;12.47;55.18
62739;BME280;48788;48.074;13.000;2023-12-29T10:28:47;95635.72;;;12.93;55.57
62739;BME280;48788;48.074;13.000;2023-12-29T10:31:18;95635.00;;;13.34;55.08
62739;BME280;48788;48.074;13.000;2023-12-29T10:33:51;95623.41;;;13.70;51.94
62739;BME280;48788;48.074;13.000;2023-12-29T10:36:22;95618.56;;;14.25;50.53
62739;BME280;48788;48.074;13.000;2023-12-29T10:39:06;95627.50;;;14.66;49.74
62739;BME280;48788;48.074;13.000;2023-12-29T10:41:48;95613.19;;;13.67;49.24
62739;BME280;48788;48.074;13.000;2023-12-29T10:44:20;95611.06;;;13.46;50.87
62739;BME280;48788;48.074;13.000;2023-12-29T10:46:51;95608.34;;;13.22;50.19
62739;BME280;48788;48.074;13.000;2023-12-29T10:49:23;95599.69;;;13.27;52.29
62739;BME280;48788;48.074;13.000;2023-12-29T10:51:54;95602.34;;;13.09;50.52
62739;BME280;48788;48.074;13.000;2023-12-29T10:54:25;95596.47;;;13.36;49.97
62739;BME280;48788;48.074;13.000;2023-12-29T10:57:07;95603.06;;;13.46;49.48
62739;BME280;48788;48.074;13.000;2023-12-29T10:59:38;95591.13;;;13.36;51.12
62739;BME280;48788;48.074;13.000;2023-12-29T11:02:12;95588.53;;;13.60;50.28
62739;BME280;48788;48.074;13.000;2023-12-29T11:04:45;95581.38;;;13.72;50.06
62739;BME280;48788;48.074;13.000;2023-12-29T11:07:31;95586.16;;;13.82;49.82
62739;BME280;48788;48.074;13.000;2023-12-29T11:10:13;95583.00;;;13.96;48.75
62739;BME280;48788;48.074;13.000;2023-12-29T11:12:45;95585.09;;;13.83;48.42
62739;BME280;48788;48.074;13.000;2023-12-29T11:15:17;95584.38;;;13.64;48.43
62739;BME280;48788;48.074;13.000;2023-12-29T11:17:50;95577.94;;;13.30;47.85
62739;BME280;48788;48.074;13.000;2023-12-29T11:20:23;95576.19;;;13.24;49.81
62739;BME280;48788;48.074;13.000;2023-12-29T11:22:55;95586.72;;;13.00;50.16
62739;BME280;48788;48.074;13.000;2023-12-29T11:25:32;95580.75;;;13.05;51.29
62739;BME280;48788;48.074;13.000;2023-12-29T11:28:05;95568.19;;;12.64;51.92
62739;BME280;48788;48.074;13.000;2023-12-29T11:30:37;95569.09;;;12.40;53.29
62739;BME280;48788;48.074;13.000;2023-12-29T11:33:14;95559.34;;;12.34;53.67
62739;BME280;48788;48.074;13.000;2023-12-29T11:35:51;95561.63;;;12.12;54.30
62739;BME280;48788;48.074;13.000;2023-12-29T11:38:33;95552.41;;;12.14;53.48
62739;BME280;48788;48.074;13.000;2023-12-29T11:41:21;95556.38;;;12.23;53.79
62739;BME280;48788;48.074;13.000;2023-12-29T11:43:56;95556.06;;;12.98;51.82
62739;BME280;48788;48.074;13.000;2023-12-29T11:46:37;95562.97;;;13.70;50.51
62739;BME280;48788;48.074;13.000;2023-12-29T11:49:09;95554.53;;;13.97;48.34
62739;BME280;48788;48.074;13.000;2023-12-29T11:51:42;95543.41;;;14.11;48.06
62739;BME280;48788;48.074;13.000;2023-12-29T11:54:22;95552.38;;;14.57;48.11
62739;BME280;48788;48.074;13.000;2023-12-29T11:56:59;95542.00;;;14.09;48.88
62739;BME280;48788;48.074;13.000;2023-12-29T11:59:30;95548.50;;;13.13;49.75
62739;BME280;48788;48.074;13.000;2023-12-29T12:02:05;95539.34;;;12.79;51.01
62739;BME280;48788;48.074;13.000;2023-12-29T12:04:38;95536.13;;;12.29;54.71
62739;BME280;48788;48.074;13.000;2023-12-29T12:07:15;95544.72;;;12.06;55.67
62739;BME280;48788;48.074;13.000;2023-12-29T12:09:46;95536.97;;;12.05;54.97
62739;BME280;48788;48.074;13.000;2023-12-29T12:12:45;95529.63;;;12.07;55.35
62739;BME280;48788;48.074;13.000;2023-12-29T12:15:39;95533.00;;;11.96;56.42
62739;BME280;48788;48.074;13.000;2023-12-29T12:18:20;95526.28;;;12.48;56.07
62739;BME280;48788;48.074;13.000;2023-12-29T12:20:51;95516.19;;;12.38;56.19
62739;BME280;48788;48.074;13.000;2023-12-29T12:23:24;95523.13;;;12.39;56.97
62739;BME280;48788;48.074;13.000;2023-12-29T12:25:57;95512.94;;;12.18;57.23
62739;BME280;48788;48.074;13.000;2023-12-29T12:28:29;95512.78;;;12.13;58.75
62739;BME280;48788;48.074;13.000;2023-12-29T12:31:07;95507.16;;;12.21;58.66
62739;BME280;48788;48.074;13.000;2023-12-29T12:33:53;95506.34;;;12.57;57.11
62739;BME280;48788;48.074;13.000;2023-12-29T12:36:47;95506.13;;;12.58;56.42
62739;BME280;48788;48.074;13.000;2023-12-29T12:39:48;95509.06;;;12.50;57.87
62739;BME280;48788;48.074;13.000;2023-12-29T12:42:29;95515.53;;;12.06;59.79
62739;BME280;48788;48.074;13.000;2023-12-29T12:45:04;95510.13;;;12.31;59.57
62739;BME280;48788;48.074;13.000;2023-12-29T12:47:42;95509.59;;;12.22;60.71
62739;BME280;48788;48.074;13.000;2023-12-29T12:50:16;95506.81;;;11.99;61.66
62739;BME280;48788;48.074;13.000;2023-12-29T12:52:47;95491.69;;;12.18;61.11
62739;BME280;48788;48.074;13.000;2023-12-29T12:55:19;95501.34;;;12.12;62.96
62739;BME280;48788;48.074;13.000;2023-12-29T12:57:56;95507.69;;;11.93;64.35
62739;BME280;48788;48.074;13.000;2023-12-29T13:00:28;95508.44;;;11.82;66.01
62739;BME280;48788;48.074;13.000;2023-12-29T13:03:00;95502.91;;;11.59;67.50
62739;BME280;48788;48.074;13.000;2023-12-29T13:05:32;95521.28;;;11.60;69.06
62739;BME280;48788;48.074;13.000;2023-12-29T13:08:04;95519.97;;;11.44;70.18
62739;BME280;48788;48.074;13.000;2023-12-29T13:10:40;95511.25;;;11.62;70.13
62739;BME280;48788;48.074;13.000;2023-12-29T13:13:18;95507.34;;;11.89;69.33
62739;BME280;48788;48.074;13.000;2023-12-29T13:15:51;95501.75;;;11.73;69.12
62739;BME280;48788;48.074;13.000;2023-12-29T13:18:28;95508.69;;;11.74;69.93
62739;BME280;48788;48.074;13.000;2023-12-29T13:21:00;95508.66;;;11.80;70.92
62739;BME280;48788;48.074;13.000;2023-12-29T13:23:32;95511.03;;;11.88;69.75
62739;BME280;48788;48.074;13.000;2023-12-29T13:26:05;95511.97;;;12.31;67.96
62739;BME280;48788;48.074;13.000;2023-12-29T13:28:43;95503.97;;;12.01;68.76